sensor_id;sensor_type;location;lat;lon;timestamp;pressure;altitude;pressure_sealevel;temperature;humidity
21361;BME280;10839;43.206;23.550;2022-08-16T00:00:04;96567.19;;;22.56;70.64
21361;BME280;10839;43.206;23.550;2022-08-16T00:02:31;96563.06;;;22.64;70.74
21361;BME280;10839;43.206;23.550;2022-08-16T00:04:57;96568.81;;;22.57;70.45
21361;BME280;10839;43.206;23.550;2022-08-16T00:07:23;96556.25;;;22.46;70.80
21361;BME280;10839;43.206;23.550;2022-08-16T00:09:48;96561.19;;;22.49;70.51
21361;BME280;10839;43.206;23.550;2022-08-16T00:12:14;96563.41;;;22.47;70.54
21361;BME280;10839;43.206;23.550;2022-08-16T00:14:40;96562.31;;;22.43;70.68
21361;BME280;10839;43.206;23.550;2022-08-16T00:17:05;96560.69;;;22.42;70.94
21361;BME280;10839;43.206;23.550;2022-08-16T00:19:32;96559.31;;;22.40;71.01
21361;BME280;10839;43.206;23.550;2022-08-16T00:21:58;96566.13;;;22.52;70.26
21361;BME280;10839;43.206;23.550;2022-08-16T00:24:24;96563.38;;;22.52;71.27
21361;BME280;10839;43.206;23.550;2022-08-16T00:26:51;96562.84;;;22.55;70.77
21361;BME280;10839;43.206;23.550;2022-08-16T00:29:17;96551.25;;;22.63;70.10
21361;BME280;10839;43.206;23.550;2022-08-16T00:31:44;96566.00;;;22.67;70.28
21361;BME280;10839;43.206;23.550;2022-08-16T00:34:10;96560.06;;;22.60;70.02
21361;BME280;10839;43.206;23.550;2022-08-16T00:36:36;96565.31;;;22.47;71.52
21361;BME280;10839;43.206;23.550;2022-08-16T00:39:01;96563.47;;;22.37;72.93
21361;BME280;10839;43.206;23.550;2022-08-16T00:41:27;96567.34;;;22.26;73.95
21361;BME280;10839;43.206;23.550;2022-08-16T00:43:53;96566.88;;;22.09;76.01
21361;BME280;10839;43.206;23.550;2022-08-16T00:46:21;96572.94;;;22.06;75.89
21361;BME280;10839;43.206;23.550;2022-08-16T00:48:49;96564.19;;;22.04;76.21
21361;BME280;10839;43.206;23.550;2022-08-16T00:53:41;96579.00;;;21.98;76.76
21361;BME280;10839;43.206;23.550;2022-08-16T00:56:09;96577.63;;;22.06;75.37
21361;BME280;10839;43.206;23.550;2022-08-16T00:58:36;96571.34;;;21.95;76.67
21361;BME280;10839;43.206;23.550;2022-08-16T01:01:04;96576.28;;;21.98;76.50
21361;BME280;10839;43.206;23.550;2022-08-16T01:03:30;96579.56;;;22.00;75.54
21361;BME280;10839;43.206;23.550;2022-08-16T01:05:56;96582.00;;;22.07;73.46
21361;BME280;10839;43.206;23.550;2022-08-16T01:08:23;96581.13;;;22.16;72.40
21361;BME280;10839;43.206;23.550;2022-08-16T01:10:51;96577.81;;;22.14;72.62
21361;BME280;10839;43.206;23.550;2022-08-16T01:13:21;96585.50;;;22.17;71.96
21361;BME280;10839;43.206;23.550;2022-08-16T01:15:49;96589.84;;;22.23;72.91
21361;BME280;10839;43.206;23.550;2022-08-16T01:18:16;96588.50;;;22.26;74.89
21361;BME280;10839;43.206;23.550;2022-08-16T01:20:45;96596.00;;;22.00;78.67
21361;BME280;10839;43.206;23.550;2022-08-16T01:23:35;96590.34;;;21.56;81.46
21361;BME280;10839;43.206;23.550;2022-08-16T01:26:02;96600.00;;;21.34;84.26
21361;BME280;10839;43.206;23.550;2022-08-16T01:28:29;96593.41;;;21.40;84.59
21361;BME280;10839;43.206;23.550;2022-08-16T01:30:55;96590.69;;;21.25;83.26
21361;BME280;10839;43.206;23.550;2022-08-16T01:33:23;96595.59;;;21.33;80.45
21361;BME280;10839;43.206;23.550;2022-08-16T01:35:54;96595.84;;;21.56;79.38
21361;BME280;10839;43.206;23.550;2022-08-16T01:38:30;96597.22;;;21.49;80.00
21361;BME280;10839;43.206;23.550;2022-08-16T01:41:08;96581.03;;;21.68;78.31
21361;BME280;10839;43.206;23.550;2022-08-16T01:43:36;96593.88;;;21.72;78.17
21361;BME280;10839;43.206;23.550;2022-08-16T01:46:03;96598.53;;;21.82;76.50
21361;BME280;10839;43.206;23.550;2022-08-16T01:48:30;96607.00;;;21.90;74.67
21361;BME280;10839;43.206;23.550;2022-08-16T01:50:57;96611.34;;;21.96;74.87
21361;BME280;10839;43.206;23.550;2022-08-16T01:53:27;96607.53;;;21.92;73.77
21361;BME280;10839;43.206;23.550;2022-08-16T01:56:01;96609.69;;;22.05;73.24
21361;BME280;10839;43.206;23.550;2022-08-16T01:58:29;96607.28;;;21.74;77.01
21361;BME280;10839;43.206;23.550;2022-08-16T02:00:56;96611.38;;;21.76;77.36
21361;BME280;10839;43.206;23.550;2022-08-16T02:03:21;96611.19;;;21.63;78.30
21361;BME280;10839;43.206;23.550;2022-08-16T02:05:47;96618.00;;;21.60;77.98
21361;BME280;10839;43.206;23.550;2022-08-16T02:08:13;96604.84;;;21.82;76.57
21361;BME280;10839;43.206;23.550;2022-08-16T02:10:40;96606.44;;;21.93;74.61
21361;BME280;10839;43.206;23.550;2022-08-16T02:13:06;96601.47;;;22.00;72.76
21361;BME280;10839;43.206;23.550;2022-08-16T02:15:34;96603.06;;;22.11;72.37
21361;BME280;10839;43.206;23.550;2022-08-16T02:18:01;96606.34;;;22.13;74.17
21361;BME280;10839;43.206;23.550;2022-08-16T02:20:29;96599.22;;;22.17;72.32
21361;BME280;10839;43.206;23.550;2022-08-16T02:22:55;96601.94;;;22.22;70.71
21361;BME280;10839;43.206;23.550;2022-08-16T02:25:21;96604.69;;;22.17;70.26
21361;BME280;10839;43.206;23.550;2022-08-16T02:27:47;96603.31;;;22.15;72.21
21361;BME280;10839;43.206;23.550;2022-08-16T02:30:14;96604.75;;;22.07;73.56
21361;BME280;10839;43.206;23.550;2022-08-16T02:32:42;96600.88;;;22.13;71.70
21361;BME280;10839;43.206;23.550;2022-08-16T02:35:08;96601.34;;;22.30;70.44
21361;BME280;10839;43.206;23.550;2022-08-16T02:37:34;96600.31;;;22.16;71.27
21361;BME280;10839;43.206;23.550;2022-08-16T02:40:00;96604.19;;;22.05;71.34
21361;BME280;10839;43.206;23.550;2022-08-16T02:42:26;96600.31;;;22.16;70.36
21361;BME280;10839;43.206;23.550;2022-08-16T02:44:52;96610.69;;;22.19;69.23
21361;BME280;10839;43.206;23.550;2022-08-16T02:47:18;96603.03;;;22.21;69.30
21361;BME280;10839;43.206;23.550;2022-08-16T02:49:43;96607.41;;;22.27;69.58
21361;BME280;10839;43.206;23.550;2022-08-16T02:52:10;96617.88;;;22.10;72.43
21361;BME280;10839;43.206;23.550;2022-08-16T02:54:36;96608.81;;;22.15;72.34
21361;BME280;10839;43.206;23.550;2022-08-16T02:57:02;96615.75;;;21.92;74.74
21361;BME280;10839;43.206;23.550;2022-08-16T02:59:29;96617.31;;;22.13;72.81
21361;BME280;10839;43.206;23.550;2022-08-16T03:01:55;96620.56;;;22.25;71.02
21361;BME280;10839;43.206;23.550;2022-08-16T03:04:26;96630.28;;;22.51;66.80
21361;BME280;10839;43.206;23.550;2022-08-16T03:06:52;96632.22;;;22.46;68.31
21361;BME280;10839;43.206;23.550;2022-08-16T03:09:24;96640.41;;;22.61;67.10
21361;BME280;10839;43.206;23.550;2022-08-16T03:11:52;96644.19;;;22.70;66.11
21361;BME280;10839;43.206;23.550;2022-08-16T03:14:19;96637.25;;;22.83;65.94
21361;BME280;10839;43.206;23.550;2022-08-16T03:16:46;96636.13;;;22.89;65.96
21361;BME280;10839;43.206;23.550;2022-08-16T03:19:12;96634.47;;;22.88;66.53
21361;BME280;10839;43.206;23.550;2022-08-16T03:21:38;96638.44;;;22.66;70.84
21361;BME280;10839;43.206;23.550;2022-08-16T03:24:06;96644.03;;;22.46;71.64
21361;BME280;10839;43.206;23.550;2022-08-16T03:26:32;96643.34;;;22.74;70.23
21361;BME280;10839;43.206;23.550;2022-08-16T03:29:00;96640.41;;;23.00;68.65
21361;BME280;10839;43.206;23.550;2022-08-16T03:31:27;96633.41;;;22.84;69.66
21361;BME280;10839;43.206;23.550;2022-08-16T03:33:54;96634.78;;;22.81;67.82
21361;BME280;10839;43.206;23.550;2022-08-16T03:36:20;96635.28;;;22.88;65.88
21361;BME280;10839;43.206;23.550;2022-08-16T03:38:51;96619.88;;;23.26;61.07
21361;BME280;10839;43.206;23.550;2022-08-16T03:41:16;96615.91;;;23.47;59.89
21361;BME280;10839;43.206;23.550;2022-08-16T03:43:42;96615.91;;;23.47;58.29
21361;BME280;10839;43.206;23.550;2022-08-16T03:46:11;96613.47;;;23.69;57.95
21361;BME280;10839;43.206;23.550;2022-08-16T03:48:38;96604.13;;;23.70;56.29
21361;BME280;10839;43.206;23.550;2022-08-16T03:51:10;96603.00;;;23.94;52.00
21361;BME280;10839;43.206;23.550;2022-08-16T03:53:42;96586.22;;;24.20;49.89
21361;BME280;10839;43.206;23.550;2022-08-16T03:56:09;96594.78;;;24.18;50.24
21361;BME280;10839;43.206;23.550;2022-08-16T03:58:35;96582.84;;;24.04;52.60
21361;BME280;10839;43.206;23.550;2022-08-16T04:01:01;96584.38;;;24.15;50.27
21361;BME280;10839;43.206;23.550;2022-08-16T04:03:28;96576.28;;;24.24;50.12
21361;BME280;10839;43.206;23.550;2022-08-16T04:05:55;96585.09;;;24.02;51.27
21361;BME280;10839;43.206;23.550;2022-08-16T04:08:22;96580.47;;;23.92;51.47
21361;BME280;10839;43.206;23.550;2022-08-16T04:10:51;96582.22;;;24.12;49.27
21361;BME280;10839;43.206;23.550;2022-08-16T04:13:17;96576.84;;;24.21;48.60
21361;BME280;10839;43.206;23.550;2022-08-16T04:15:43;96584.59;;;23.95;51.28
21361;BME280;10839;43.206;23.550;2022-08-16T04:18:15;96585.56;;;23.57;53.79
21361;BME280;10839;43.206;23.550;2022-08-16T04:20:42;96586.97;;;23.21;61.98
21361;BME280;10839;43.206;23.550;2022-08-16T04:23:08;96589.50;;;22.40;68.76
21361;BME280;10839;43.206;23.550;2022-08-16T04:25:37;96598.19;;;21.98;71.37
21361;BME280;10839;43.206;23.550;2022-08-16T04:28:04;96597.50;;;21.47;75.80
21361;BME280;10839;43.206;23.550;2022-08-16T04:30:30;96606.53;;;21.43;77.42
21361;BME280;10839;43.206;23.550;2022-08-16T04:32:56;96601.06;;;21.48;77.30
21361;BME280;10839;43.206;23.550;2022-08-16T04:35:23;96606.53;;;21.43;78.25
21361;BME280;10839;43.206;23.550;2022-08-16T04:37:51;96607.63;;;21.47;76.65
21361;BME280;10839;43.206;23.550;2022-08-16T04:40:30;96612.25;;;21.77;75.37
21361;BME280;10839;43.206;23.550;2022-08-16T04:42:57;96603.69;;;21.98;73.48
21361;BME280;10839;43.206;23.550;2022-08-16T04:45:27;96611.31;;;22.06;73.25
21361;BME280;10839;43.206;23.550;2022-08-16T04:47:53;96608.44;;;22.31;69.67
21361;BME280;10839;43.206;23.550;2022-08-16T04:50:20;96608.25;;;22.71;66.17
21361;BME280;10839;43.206;23.550;2022-08-16T04:53:00;96609.66;;;23.03;64.33
21361;BME280;10839;43.206;23.550;2022-08-16T04:55:30;96606.69;;;23.33;59.84
21361;BME280;10839;43.206;23.550;2022-08-16T04:57:56;96622.09;;;23.57;55.26
21361;BME280;10839;43.206;23.550;2022-08-16T05:00:25;96609.66;;;23.65;53.97
21361;BME280;10839;43.206;23.550;2022-08-16T05:02:53;96608.31;;;23.86;53.83
21361;BME280;10839;43.206;23.550;2022-08-16T05:05:20;96604.59;;;24.24;52.97
21361;BME280;10839;43.206;23.550;2022-08-16T05:07:49;96605.69;;;24.65;50.72
21361;BME280;10839;43.206;23.550;2022-08-16T05:10:16;96606.34;;;25.13;49.06
21361;BME280;10839;43.206;23.550;2022-08-16T05:12:42;96619.25;;;26.09;48.97
21361;BME280;10839;43.206;23.550;2022-08-16T05:15:08;96608.75;;;27.76;50.51
21361;BME280;10839;43.206;23.550;2022-08-16T05:17:36;96616.84;;;27.41;51.15
21361;BME280;10839;43.206;23.550;2022-08-16T05:20:08;96622.56;;;27.98;50.82
21361;BME280;10839;43.206;23.550;2022-08-16T05:22:38;96607.88;;;29.35;47.55
21361;BME280;10839;43.206;23.550;2022-08-16T05:25:06;96612.78;;;30.10;45.08
21361;BME280;10839;43.206;23.550;2022-08-16T05:27:32;96618.28;;;28.87;46.32
21361;BME280;10839;43.206;23.550;2022-08-16T05:29:59;96620.97;;;27.08;51.28
21361;BME280;10839;43.206;23.550;2022-08-16T05:32:26;96626.09;;;28.85;48.78
21361;BME280;10839;43.206;23.550;2022-08-16T05:34:52;96631.88;;;30.87;43.48
21361;BME280;10839;43.206;23.550;2022-08-16T05:37:20;96635.25;;;32.19;40.40
21361;BME280;10839;43.206;23.550;2022-08-16T05:39:50;96646.47;;;34.26;37.33
21361;BME280;10839;43.206;23.550;2022-08-16T05:42:15;96646.69;;;35.30;35.73
21361;BME280;10839;43.206;23.550;2022-08-16T05:44:41;96644.78;;;35.88;35.05
21361;BME280;10839;43.206;23.550;2022-08-16T05:47:10;96649.25;;;36.57;33.71
21361;BME280;10839;43.206;23.550;2022-08-16T05:49:36;96652.41;;;37.00;32.54
21361;BME280;10839;43.206;23.550;2022-08-16T05:52:01;96647.69;;;37.31;32.15
21361;BME280;10839;43.206;23.550;2022-08-16T05:54:28;96639.47;;;38.07;31.14
21361;BME280;10839;43.206;23.550;2022-08-16T05:56:56;96634.97;;;38.76;29.99
21361;BME280;10839;43.206;23.550;2022-08-16T05:59:23;96642.34;;;38.51;29.73
21361;BME280;10839;43.206;23.550;2022-08-16T06:01:49;96642.72;;;38.93;29.08
21361;BME280;10839;43.206;23.550;2022-08-16T06:04:19;96638.94;;;39.22;28.93
21361;BME280;10839;43.206;23.550;2022-08-16T06:06:48;96643.88;;;39.36;28.58
21361;BME280;10839;43.206;23.550;2022-08-16T06:09:16;96640.34;;;40.49;26.10
21361;BME280;10839;43.206;23.550;2022-08-16T06:11:42;96630.94;;;39.31;26.71
21361;BME280;10839;43.206;23.550;2022-08-16T06:14:09;96633.75;;;38.77;26.85
21361;BME280;10839;43.206;23.550;2022-08-16T06:16:54;96633.34;;;39.98;25.51
21361;BME280;10839;43.206;23.550;2022-08-16T06:19:20;96631.78;;;39.35;26.29
21361;BME280;10839;43.206;23.550;2022-08-16T06:21:57;96628.25;;;39.45;26.06
21361;BME280;10839;43.206;23.550;2022-08-16T06:24:23;96626.13;;;40.25;25.72
21361;BME280;10839;43.206;23.550;2022-08-16T06:26:48;96626.34;;;39.71;25.60
21361;BME280;10839;43.206;23.550;2022-08-16T06:29:14;96625.59;;;39.81;25.94
21361;BME280;10839;43.206;23.550;2022-08-16T06:31:41;96632.94;;;39.96;25.61
21361;BME280;10839;43.206;23.550;2022-08-16T06:34:07;96626.16;;;40.18;25.88
21361;BME280;10839;43.206;23.550;2022-08-16T06:36:34;96623.84;;;39.51;27.52
21361;BME280;10839;43.206;23.550;2022-08-16T06:39:12;96627.38;;;36.88;30.54
21361;BME280;10839;43.206;23.550;2022-08-16T06:41:53;96632.97;;;36.88;31.39
21361;BME280;10839;43.206;23.550;2022-08-16T06:44:37;96620.41;;;35.35;32.84
21361;BME280;10839;43.206;23.550;2022-08-16T06:47:08;96619.50;;;35.31;33.94
21361;BME280;10839;43.206;23.550;2022-08-16T06:49:34;96629.28;;;35.75;32.76
21361;BME280;10839;43.206;23.550;2022-08-16T06:52:00;96625.59;;;35.90;33.38
21361;BME280;10839;43.206;23.550;2022-08-16T06:54:27;96622.47;;;33.94;35.69
21361;BME280;10839;43.206;23.550;2022-08-16T06:56:53;96621.41;;;34.14;36.69
21361;BME280;10839;43.206;23.550;2022-08-16T06:59:19;96618.22;;;34.43;36.03
21361;BME280;10839;43.206;23.550;2022-08-16T07:01:49;96620.47;;;32.52;37.92
21361;BME280;10839;43.206;23.550;2022-08-16T07:04:17;96621.41;;;35.27;34.33
21361;BME280;10839;43.206;23.550;2022-08-16T07:06:43;96623.78;;;36.20;32.89
21361;BME280;10839;43.206;23.550;2022-08-16T07:09:11;96620.22;;;36.23;32.14
21361;BME280;10839;43.206;23.550;2022-08-16T07:11:41;96621.59;;;34.83;34.01
21361;BME280;10839;43.206;23.550;2022-08-16T07:14:09;96623.00;;;35.62;32.91
21361;BME280;10839;43.206;23.550;2022-08-16T07:16:43;96614.41;;;35.52;32.65
21361;BME280;10839;43.206;23.550;2022-08-16T07:19:08;96615.84;;;35.84;32.89
21361;BME280;10839;43.206;23.550;2022-08-16T07:21:37;96623.03;;;36.68;31.47
21361;BME280;10839;43.206;23.550;2022-08-16T07:24:06;96621.41;;;37.46;30.74
21361;BME280;10839;43.206;23.550;2022-08-16T07:26:35;96617.84;;;35.83;32.53
21361;BME280;10839;43.206;23.550;2022-08-16T07:29:02;96610.81;;;35.74;30.74
21361;BME280;10839;43.206;23.550;2022-08-16T07:31:29;96615.63;;;35.01;32.28
21361;BME280;10839;43.206;23.550;2022-08-16T07:33:55;96611.56;;;34.82;32.86
21361;BME280;10839;43.206;23.550;2022-08-16T07:36:30;96618.28;;;36.72;30.85
21361;BME280;10839;43.206;23.550;2022-08-16T07:38:56;96614.69;;;36.49;28.86
21361;BME280;10839;43.206;23.550;2022-08-16T07:41:22;96617.59;;;36.11;29.69
21361;BME280;10839;43.206;23.550;2022-08-16T07:43:54;96626.50;;;37.96;27.37
21361;BME280;10839;43.206;23.550;2022-08-16T07:46:22;96628.88;;;37.94;27.31
21361;BME280;10839;43.206;23.550;2022-08-16T07:48:48;96639.31;;;37.64;27.24
21361;BME280;10839;43.206;23.550;2022-08-16T07:51:14;96635.50;;;38.92;25.97
21361;BME280;10839;43.206;23.550;2022-08-16T07:53:40;96634.81;;;38.22;26.79
21361;BME280;10839;43.206;23.550;2022-08-16T07:56:07;96629.22;;;39.09;26.35
21361;BME280;10839;43.206;23.550;2022-08-16T07:58:36;96635.59;;;39.68;24.63
21361;BME280;10839;43.206;23.550;2022-08-16T08:01:10;96636.78;;;39.60;24.69
21361;BME280;10839;43.206;23.550;2022-08-16T08:03:40;96633.50;;;39.50;24.67
21361;BME280;10839;43.206;23.550;2022-08-16T08:06:09;96634.41;;;39.69;24.83
21361;BME280;10839;43.206;23.550;2022-08-16T08:08:34;96637.66;;;39.78;24.18
21361;BME280;10839;43.206;23.550;2022-08-16T08:11:01;96644.22;;;39.96;24.20
21361;BME280;10839;43.206;23.550;2022-08-16T08:13:26;96639.38;;;39.93;23.48
21361;BME280;10839;43.206;23.550;2022-08-16T08:15:54;96637.44;;;40.18;23.07
21361;BME280;10839;43.206;23.550;2022-08-16T08:18:21;96638.91;;;39.15;24.05
21361;BME280;10839;43.206;23.550;2022-08-16T08:20:48;96631.09;;;39.53;23.46
21361;BME280;10839;43.206;23.550;2022-08-16T08:23:14;96638.22;;;40.08;22.88
21361;BME280;10839;43.206;23.550;2022-08-16T08:25:43;96635.44;;;40.29;22.67
21361;BME280;10839;43.206;23.550;2022-08-16T08:28:10;96644.34;;;40.45;22.06
21361;BME280;10839;43.206;23.550;2022-08-16T08:30:39;96649.19;;;40.55;22.15
21361;BME280;10839;43.206;23.550;2022-08-16T08:33:05;96636.69;;;40.49;21.39
21361;BME280;10839;43.206;23.550;2022-08-16T08:35:34;96638.53;;;39.89;21.32
21361;BME280;10839;43.206;23.550;2022-08-16T08:38:01;96633.50;;;40.61;21.76
21361;BME280;10839;43.206;23.550;2022-08-16T08:40:29;96637.09;;;40.58;21.44
21361;BME280;10839;43.206;23.550;2022-08-16T08:42:56;96633.06;;;40.31;21.52
21361;BME280;10839;43.206;23.550;2022-08-16T08:45:22;96647.09;;;39.34;22.21
21361;BME280;10839;43.206;23.550;2022-08-16T08:47:48;96632.13;;;39.99;22.42
21361;BME280;10839;43.206;23.550;2022-08-16T08:50:15;96638.44;;;39.75;22.79
21361;BME280;10839;43.206;23.550;2022-08-16T08:52:51;96641.47;;;39.41;23.50
21361;BME280;10839;43.206;23.550;2022-08-16T08:55:19;96644.69;;;39.43;22.58
21361;BME280;10839;43.206;23.550;2022-08-16T08:57:48;96640.16;;;38.71;23.15
21361;BME280;10839;43.206;23.550;2022-08-16T09:00:22;96647.81;;;39.24;23.71
21361;BME280;10839;43.206;23.550;2022-08-16T09:02:52;96640.34;;;38.95;23.41
21361;BME280;10839;43.206;23.550;2022-08-16T09:05:19;96639.53;;;38.98;23.43
21361;BME280;10839;43.206;23.550;2022-08-16T09:07:49;96648.56;;;39.14;23.20
21361;BME280;10839;43.206;23.550;2022-08-16T09:10:15;96648.94;;;39.78;22.44
21361;BME280;10839;43.206;23.550;2022-08-16T09:12:41;96647.44;;;40.05;22.04
21361;BME280;10839;43.206;23.550;2022-08-16T09:15:08;96639.53;;;39.45;22.83
21361;BME280;10839;43.206;23.550;2022-08-16T09:17:35;96642.41;;;39.56;23.06
21361;BME280;10839;43.206;23.550;2022-08-16T09:20:03;96646.19;;;39.23;22.98
21361;BME280;10839;43.206;23.550;2022-08-16T09:22:30;96642.94;;;39.14;23.31
21361;BME280;10839;43.206;23.550;2022-08-16T09:24:58;96641.38;;;38.33;23.22
21361;BME280;10839;43.206;23.550;2022-08-16T09:27:24;96645.38;;;38.32;23.72
21361;BME280;10839;43.206;23.550;2022-08-16T09:29:52;96644.97;;;38.70;23.67
21361;BME280;10839;43.206;23.550;2022-08-16T09:32:17;96636.22;;;38.82;23.50
21361;BME280;10839;43.206;23.550;2022-08-16T09:34:44;96640.47;;;38.62;23.37
21361;BME280;10839;43.206;23.550;2022-08-16T09:37:10;96635.59;;;39.03;23.22
21361;BME280;10839;43.206;23.550;2022-08-16T09:39:37;96639.69;;;39.12;23.10
21361;BME280;10839;43.206;23.550;2022-08-16T09:42:03;96644.63;;;39.29;23.19
21361;BME280;10839;43.206;23.550;2022-08-16T09:44:29;96646.53;;;39.76;22.91
21361;BME280;10839;43.206;23.550;2022-08-16T09:46:55;96645.91;;;40.28;22.32
21361;BME280;10839;43.206;23.550;2022-08-16T09:49:21;96644.22;;;39.96;22.09
21361;BME280;10839;43.206;23.550;2022-08-16T09:51:49;96646.47;;;39.66;22.21
21361;BME280;10839;43.206;23.550;2022-08-16T09:54:19;96648.09;;;39.74;22.92
21361;BME280;10839;43.206;23.550;2022-08-16T09:56:46;96643.78;;;39.25;22.88
21361;BME280;10839;43.206;23.550;2022-08-16T09:59:11;96640.97;;;39.94;21.99
21361;BME280;10839;43.206;23.550;2022-08-16T10:01:40;96640.09;;;39.83;22.22
21361;BME280;10839;43.206;23.550;2022-08-16T10:04:07;96630.50;;;39.91;22.65
21361;BME280;10839;43.206;23.550;2022-08-16T10:06:33;96621.47;;;39.61;22.03
21361;BME280;10839;43.206;23.550;2022-08-16T10:09:00;96627.88;;;39.50;22.93
21361;BME280;10839;43.206;23.550;2022-08-16T10:11:26;96622.44;;;39.93;22.38
21361;BME280;10839;43.206;23.550;2022-08-16T10:14:11;96623.06;;;39.51;22.28
21361;BME280;10839;43.206;23.550;2022-08-16T10:16:36;96620.03;;;39.19;22.02
21361;BME280;10839;43.206;23.550;2022-08-16T10:19:02;96617.66;;;39.28;22.38
21361;BME280;10839;43.206;23.550;2022-08-16T10:21:28;96602.75;;;38.30;23.34
21361;BME280;10839;43.206;23.550;2022-08-16T10:23:54;96619.81;;;37.45;24.33
21361;BME280;10839;43.206;23.550;2022-08-16T10:26:21;96617.97;;;37.89;24.39
21361;BME280;10839;43.206;23.550;2022-08-16T10:28:51;96624.56;;;37.14;24.85
21361;BME280;10839;43.206;23.550;2022-08-16T10:31:17;96617.94;;;37.56;24.97
21361;BME280;10839;43.206;23.550;2022-08-16T10:33:43;96613.00;;;38.12;24.96
21361;BME280;10839;43.206;23.550;2022-08-16T10:36:09;96626.91;;;37.98;25.01
21361;BME280;10839;43.206;23.550;2022-08-16T10:38:37;96625.09;;;37.50;24.83
21361;BME280;10839;43.206;23.550;2022-08-16T10:41:07;96629.28;;;37.63;24.58
21361;BME280;10839;43.206;23.550;2022-08-16T10:43:34;96628.25;;;37.45;25.01
21361;BME280;10839;43.206;23.550;2022-08-16T10:46:00;96622.34;;;36.75;25.45
21361;BME280;10839;43.206;23.550;2022-08-16T10:48:29;96617.53;;;36.30;26.41
21361;BME280;10839;43.206;23.550;2022-08-16T10:50:55;96611.88;;;35.85;26.67
21361;BME280;10839;43.206;23.550;2022-08-16T10:53:23;96611.75;;;35.40;26.35
21361;BME280;10839;43.206;23.550;2022-08-16T10:55:49;96613.03;;;36.03;26.26
21361;BME280;10839;43.206;23.550;2022-08-16T10:58:14;96620.16;;;36.87;25.66
21361;BME280;10839;43.206;23.550;2022-08-16T11:00:40;96600.94;;;35.99;26.08
21361;BME280;10839;43.206;23.550;2022-08-16T11:03:07;96614.97;;;37.15;25.87
21361;BME280;10839;43.206;23.550;2022-08-16T11:05:34;96623.84;;;37.77;25.48
21361;BME280;10839;43.206;23.550;2022-08-16T11:08:00;96616.06;;;38.00;25.13
21361;BME280;10839;43.206;23.550;2022-08-16T11:10:28;96620.69;;;37.22;25.61
21361;BME280;10839;43.206;23.550;2022-08-16T11:12:54;96622.75;;;37.55;25.95
21361;BME280;10839;43.206;23.550;2022-08-16T11:15:20;96617.25;;;37.33;25.97
21361;BME280;10839;43.206;23.550;2022-08-16T11:17:46;96625.34;;;37.11;26.13
21361;BME280;10839;43.206;23.550;2022-08-16T11:20:12;96622.34;;;36.52;26.55
21361;BME280;10839;43.206;23.550;2022-08-16T11:22:39;96622.72;;;36.51;26.84
21361;BME280;10839;43.206;23.550;2022-08-16T11:25:07;96619.19;;;37.29;26.39
21361;BME280;10839;43.206;23.550;2022-08-16T11:27:33;96616.34;;;37.55;26.07
21361;BME280;10839;43.206;23.550;2022-08-16T11:29:59;96618.19;;;37.17;26.24
21361;BME280;10839;43.206;23.550;2022-08-16T11:32:25;96620.16;;;36.42;27.18
21361;BME280;10839;43.206;23.550;2022-08-16T11:34:52;96604.66;;;35.46;28.24
21361;BME280;10839;43.206;23.550;2022-08-16T11:37:17;96601.88;;;35.65;28.13
21361;BME280;10839;43.206;23.550;2022-08-16T11:39:43;96605.53;;;35.88;28.23
21361;BME280;10839;43.206;23.550;2022-08-16T11:42:09;96597.66;;;36.16;27.95
21361;BME280;10839;43.206;23.550;2022-08-16T11:44:35;96591.63;;;36.14;27.95
21361;BME280;10839;43.206;23.550;2022-08-16T11:47:01;96588.69;;;36.30;27.31
21361;BME280;10839;43.206;23.550;2022-08-16T11:49:26;96593.03;;;36.27;27.56
21361;BME280;10839;43.206;23.550;2022-08-16T11:51:53;96598.13;;;36.63;27.45
21361;BME280;10839;43.206;23.550;2022-08-16T11:54:18;96585.88;;;36.07;27.70
21361;BME280;10839;43.206;23.550;2022-08-16T11:56:44;96587.66;;;36.15;27.32
21361;BME280;10839;43.206;23.550;2022-08-16T11:59:09;96578.34;;;36.11;27.46
21361;BME280;10839;43.206;23.550;2022-08-16T12:01:35;96581.03;;;36.49;27.15
21361;BME280;10839;43.206;23.550;2022-08-16T12:04:01;96579.13;;;35.89;27.90
21361;BME280;10839;43.206;23.550;2022-08-16T12:06:27;96567.13;;;35.88;27.53
21361;BME280;10839;43.206;23.550;2022-08-16T12:08:54;96556.91;;;35.58;27.91
21361;BME280;10839;43.206;23.550;2022-08-16T12:11:22;96565.75;;;35.41;28.40
21361;BME280;10839;43.206;23.550;2022-08-16T12:13:49;96554.81;;;35.36;28.40
21361;BME280;10839;43.206;23.550;2022-08-16T12:16:15;96553.41;;;34.72;28.97
21361;BME280;10839;43.206;23.550;2022-08-16T12:18:43;96542.53;;;35.21;28.51
21361;BME280;10839;43.206;23.550;2022-08-16T12:21:09;96547.88;;;35.11;29.11
21361;BME280;10839;43.206;23.550;2022-08-16T12:23:35;96547.75;;;35.04;29.01
21361;BME280;10839;43.206;23.550;2022-08-16T12:26:01;96546.28;;;35.10;29.10
21361;BME280;10839;43.206;23.550;2022-08-16T12:28:26;96557.50;;;35.48;28.53
21361;BME280;10839;43.206;23.550;2022-08-16T12:30:52;96556.59;;;35.63;28.75
21361;BME280;10839;43.206;23.550;2022-08-16T12:33:18;96558.06;;;35.38;28.53
21361;BME280;10839;43.206;23.550;2022-08-16T12:35:45;96549.94;;;35.71;28.77
21361;BME280;10839;43.206;23.550;2022-08-16T12:38:11;96552.66;;;35.45;28.30
21361;BME280;10839;43.206;23.550;2022-08-16T12:40:38;96552.56;;;34.88;29.11
21361;BME280;10839;43.206;23.550;2022-08-16T12:43:08;96555.50;;;35.10;28.89
21361;BME280;10839;43.206;23.550;2022-08-16T12:45:42;96543.13;;;34.76;29.19
21361;BME280;10839;43.206;23.550;2022-08-16T12:48:09;96553.94;;;34.94;28.97
21361;BME280;10839;43.206;23.550;2022-08-16T12:50:54;96542.28;;;35.11;28.11
21361;BME280;10839;43.206;23.550;2022-08-16T12:53:20;96545.28;;;34.67;29.02